Time;durP1;ratioP1;P1;durP2;ratioP2;P2;SDS_P1;SDS_P2;PMS_P1;PMS_P2;Temp;Humidity;BMP_temperature;BMP_pressure;BME280_temperature;BME280_humidity;BME280_pressure;Samples;Min_cycle;Max_cycle;Signal;HPM_P1;HPM_P2
2023/05/08 00:00:17;;;;;;;3.62;2.15;;;;;;;17.10;43.72;99977.25;4498678;31;33201;-62
2023/05/08 00:02:45;;;;;;;3.30;2.40;;;;;;;16.98;44.18;99987.41;4483861;31;34223;-62
2023/05/08 00:05:13;;;;;;;2.90;1.75;;;;;;;17.12;43.57;99973.41;4487842;31;34506;-62
2023/05/08 00:07:41;;;;;;;2.75;2.00;;;;;;;17.06;43.54;99973.16;4482374;31;34337;-64
2023/05/08 00:10:09;;;;;;;2.95;2.25;;;;;;;17.07;43.80;99978.41;4486885;31;33573;-64
2023/05/08 00:12:37;;;;;;;3.12;1.65;;;;;;;17.12;43.39;99969.84;4495701;31;34465;-61
2023/05/08 00:15:05;;;;;;;7.00;2.80;;;;;;;17.04;43.38;99980.56;4496052;31;35238;-63
2023/05/08 00:17:33;;;;;;;3.37;2.30;;;;;;;16.95;43.83;99977.78;4482691;31;33870;-64
2023/05/08 00:20:01;;;;;;;1.55;1.20;;;;;;;16.89;44.26;99978.37;4484048;31;34067;-65
2023/05/08 00:22:29;;;;;;;3.47;2.12;;;;;;;16.98;44.08;99985.59;4493472;31;33528;-64
2023/05/08 00:24:56;;;;;;;4.75;2.65;;;;;;;16.96;43.91;99974.06;4491214;31;33926;-64
2023/05/08 00:27:24;;;;;;;4.78;1.80;;;;;;;16.98;44.32;99980.19;4491281;31;33863;-60
2023/05/08 00:29:51;;;;;;;3.28;2.00;;;;;;;17.03;44.03;99968.91;4483960;31;34026;-62
2023/05/08 00:32:20;;;;;;;3.60;1.83;;;;;;;16.97;44.04;99981.16;4486234;31;33129;-60
2023/05/08 00:34:48;;;;;;;2.65;1.70;;;;;;;17.02;43.82;99983.44;4491174;31;33614;-61
2023/05/08 00:37:15;;;;;;;3.40;2.12;;;;;;;16.91;44.34;99984.47;4493198;31;33674;-59
2023/05/08 00:39:43;;;;;;;4.90;1.77;;;;;;;16.91;44.37;99983.59;4484970;31;34961;-60
2023/05/08 00:42:10;;;;;;;3.00;2.00;;;;;;;16.89;44.17;99986.47;4492258;31;33107;-61
2023/05/08 00:44:39;;;;;;;4.37;2.87;;;;;;;16.87;44.11;99991.16;4490913;31;33826;-60
2023/05/08 00:47:07;;;;;;;3.28;1.92;;;;;;;16.79;44.65;99987.50;4499405;31;35307;-60
2023/05/08 00:49:35;;;;;;;2.60;1.92;;;;;;;16.76;44.77;99991.38;4484125;31;36544;-61
2023/05/08 00:52:03;;;;;;;4.15;2.03;;;;;;;16.61;44.70;99992.81;4491305;31;34007;-62
2023/05/08 00:54:31;;;;;;;2.70;1.73;;;;;;;16.52;44.78;99997.25;4482852;31;33677;-59
2023/05/08 00:56:59;;;;;;;4.87;1.83;;;;;;;16.36;44.60;99984.34;4496395;31;35037;-62
2023/05/08 00:59:27;;;;;;;1.65;1.25;;;;;;;16.30;44.57;99990.31;4493355;31;33599;-60
2023/05/08 01:01:54;;;;;;;1.98;1.25;;;;;;;16.24;44.69;99997.19;4494349;31;33323;-60
2023/05/08 01:04:24;;;;;;;4.37;2.37;;;;;;;16.13;44.98;99997.34;4484307;31;34834;-61
2023/05/08 01:06:51;;;;;;;2.78;1.73;;;;;;;15.95;45.52;99996.34;4484722;31;35186;-61
2023/05/08 01:09:19;;;;;;;3.12;2.08;;;;;;;15.79;45.83;99997.78;4483141;31;33556;-62
2023/05/08 01:11:59;;;;;;;2.20;1.40;;;;;;;15.64;46.44;100001.03;4494985;31;33730;-60
2023/05/08 01:14:59;;;;;;;1.85;1.40;;;;;;;15.65;46.15;100006.25;4483361;31;34001;-61
2023/05/08 01:17:35;;;;;;;3.62;2.55;;;;;;;15.81;45.78;100008.44;4491292;31;33978;-61
2023/05/08 01:20:08;;;;;;;2.95;1.85;;;;;;;15.72;46.19;100012.81;4480796;31;34007;-62
2023/05/08 01:22:45;;;;;;;2.75;1.80;;;;;;;15.81;46.15;100016.53;4491755;31;34472;-61
2023/05/08 01:26:05;;;;;;;17.73;2.08;;;;;;;15.88;45.60;100014.09;4494896;31;33467;-60
2023/05/08 01:28:48;;;;;;;3.17;2.00;;;;;;;15.65;46.01;100030.53;4489413;31;35337;-62
2023/05/08 01:31:57;;;;;;;4.12;2.37;;;;;;;15.49;46.30;100036.47;4485272;31;33722;-61
2023/05/08 01:34:30;;;;;;;3.78;1.52;;;;;;;15.58;45.75;100032.94;4487261;31;34251;-60
2023/05/08 01:37:10;;;;;;;2.03;1.35;;;;;;;15.30;46.55;100039.12;4488127;31;34994;-61
2023/05/08 01:39:43;;;;;;;5.10;2.42;;;;;;;15.41;46.25;100030.06;4488480;31;33943;-61
2023/05/08 01:42:23;;;;;;;2.85;1.75;;;;;;;15.41;46.38;100032.75;4498622;31;33927;-62
2023/05/08 01:44:56;;;;;;;5.35;2.50;;;;;;;15.28;46.79;100025.81;4485456;31;33330;-62
2023/05/08 01:47:26;;;;;;;4.70;2.37;;;;;;;15.35;46.49;100034.19;4487730;31;33806;-60
2023/05/08 01:50:06;;;;;;;2.58;1.70;;;;;;;15.35;46.44;100036.87;4484445;31;34016;-62
2023/05/08 01:52:46;;;;;;;2.95;2.05;;;;;;;15.30;46.61;100039.12;4486742;31;33750;-62
2023/05/08 01:55:25;;;;;;;3.10;1.60;;;;;;;15.24;46.59;100036.97;4482090;31;33496;-61
2023/05/08 01:57:57;;;;;;;3.42;2.05;;;;;;;15.19;46.82;100050.03;4487279;31;34703;-62
2023/05/08 02:00:26;;;;;;;2.90;1.85;;;;;;;15.20;46.75;100041.81;4490304;31;34012;-61
2023/05/08 02:02:54;;;;;;;1.85;1.23;;;;;;;15.22;46.60;100041.69;4478457;31;34144;-61
2023/05/08 02:05:22;;;;;;;1.75;1.27;;;;;;;15.18;46.71;100037.53;4486922;31;33357;-61
2023/05/08 02:07:50;;;;;;;5.72;2.10;;;;;;;15.08;46.99;100048.28;4484936;31;35369;-61
2023/05/08 02:10:18;;;;;;;2.17;1.27;;;;;;;14.74;48.46;100053.97;4484978;31;33916;-61
2023/05/08 02:12:47;;;;;;;4.18;2.67;;;;;;;14.61;48.87;100051.47;4487419;31;35094;-61
2023/05/08 02:15:16;;;;;;;4.28;2.35;;;;;;;14.78;48.37;100068.00;4482860;31;33198;-61
2023/05/08 02:17:45;;;;;;;1.45;1.25;;;;;;;14.84;48.30;100051.31;4484397;31;34513;-61
2023/05/08 02:20:13;;;;;;;3.70;2.20;;;;;;;14.89;48.52;100049.06;4494403;31;33259;-62
2023/05/08 02:22:49;;;;;;;1.33;0.95;;;;;;;14.88;48.33;100052.75;4480030;31;33840;-62
2023/05/08 02:25:17;;;;;;;1.45;1.27;;;;;;;14.93;48.33;100060.41;4485121;31;33257;-60
2023/05/08 02:27:46;;;;;;;3.55;2.47;;;;;;;15.02;48.08;100059.59;4492599;31;32693;-61
2023/05/08 02:30:15;;;;;;;2.83;2.00;;;;;;;14.95;48.27;100058.44;4486640;31;33906;-62
2023/05/08 02:32:45;;;;;;;6.18;2.15;;;;;;;14.96;48.26;100049.38;4496265;31;34588;-61
2023/05/08 02:35:15;;;;;;;2.30;1.85;;;;;;;14.80;48.67;100050.72;4481912;31;33419;-61
2023/05/08 02:37:45;;;;;;;1.83;1.42;;;;;;;14.82;48.68;100061.37;4486359;31;35100;-60
2023/05/08 02:40:13;;;;;;;4.05;2.60;;;;;;;14.84;48.32;100056.69;4483204;31;32692;-60
2023/05/08 02:42:42;;;;;;;6.72;1.98;;;;;;;14.79;48.46;100056.25;4489684;31;34162;-61
2023/05/08 02:45:11;;;;;;;5.72;2.78;;;;;;;14.91;47.83;100055.16;4481184;31;33214;-61
2023/05/08 02:47:46;;;;;;;5.32;2.30;;;;;;;14.91;47.83;100055.16;4493700;31;33547;-61
2023/05/08 02:50:17;;;;;;;2.97;2.00;;;;;;;14.86;47.86;100060.97;4491053;31;33684;-61
2023/05/08 02:52:52;;;;;;;4.15;2.35;;;;;;;14.75;47.97;100065.59;4482318;31;35132;-60
2023/05/08 02:55:33;;;;;;;4.95;2.80;;;;;;;14.64;48.04;100066.53;4495123;31;33287;-61
2023/05/08 02:58:07;;;;;;;3.83;2.50;;;;;;;14.70;48.04;100071.34;4493673;31;33777;-61
2023/05/08 03:00:41;;;;;;;3.10;2.45;;;;;;;14.66;48.13;100068.09;4484751;31;34095;-60
2023/05/08 03:03:15;;;;;;;2.22;2.03;;;;;;;14.74;48.04;100067.44;4495529;31;34538;-61
2023/05/08 03:05:51;;;;;;;6.93;2.78;;;;;;;14.70;47.92;100073.19;4487203;31;33189;-60
2023/05/08 03:08:32;;;;;;;2.50;1.65;;;;;;;14.59;48.42;100061.53;4479586;31;33817;-60
2023/05/08 03:11:06;;;;;;;6.95;1.75;;;;;;;14.64;48.21;100064.69;4489391;31;33915;-61
2023/05/08 03:13:36;;;;;;;3.53;1.85;;;;;;;14.66;48.17;100065.38;4487847;31;34608;-61
2023/05/08 03:16:05;;;;;;;3.83;2.40;;;;;;;14.77;48.04;100063.63;4480275;31;34306;-61
2023/05/08 03:18:36;;;;;;;2.90;1.67;;;;;;;14.81;47.96;100068.59;4490573;31;33037;-61
2023/05/08 03:21:05;;;;;;;4.03;2.42;;;;;;;14.44;49.42;100066.38;4484999;31;34928;-62
2023/05/08 03:23:34;;;;;;;3.15;2.35;;;;;;;14.41;48.89;100061.25;4487355;31;34817;-61
2023/05/08 03:26:02;;;;;;;2.65;1.95;;;;;;;14.56;48.51;100069.88;4482095;31;32537;-61
2023/05/08 03:28:30;;;;;;;3.35;2.55;;;;;;;14.53;48.60;100072.81;4493387;31;34629;-61
2023/05/08 03:30:59;;;;;;;3.60;1.75;;;;;;;14.56;48.65;100069.88;4481020;31;34809;-61
2023/05/08 03:33:28;;;;;;;4.97;2.08;;;;;;;14.62;49.09;100069.34;4487267;31;33675;-60
2023/05/08 03:35:56;;;;;;;4.00;1.95;;;;;;;14.82;48.14;100083.78;4490522;31;34415;-61
2023/05/08 03:38:24;;;;;;;1.83;1.37;;;;;;;14.89;48.20;100070.59;4487760;31;33629;-63
2023/05/08 03:40:51;;;;;;;4.68;2.22;;;;;;;14.98;47.59;100069.81;4490033;31;35081;-61
2023/05/08 03:43:20;;;;;;;3.83;2.17;;;;;;;14.98;47.74;100075.19;4495963;31;34034;-60
2023/05/08 03:45:49;;;;;;;4.15;2.20;;;;;;;15.03;47.62;100072.97;4488798;31;33161;-59
2023/05/08 03:48:17;;;;;;;3.65;2.53;;;;;;;15.07;47.49;100078.94;4487965;31;33696;-61
2023/05/08 03:50:45;;;;;;;5.18;2.22;;;;;;;15.12;47.32;100082.09;4490389;31;33954;-62
2023/05/08 03:53:13;;;;;;;2.47;1.35;;;;;;;14.87;48.10;100078.84;4489530;31;35098;-62
2023/05/08 03:55:41;;;;;;;3.67;2.40;;;;;;;14.91;48.22;100079.44;4482545;31;33547;-61
2023/05/08 03:58:27;;;;;;;4.25;2.55;;;;;;;14.89;48.29;100084.09;4493248;31;32480;-61
2023/05/08 04:01:07;;;;;;;4.78;2.45;;;;;;;14.85;48.34;100083.50;4489301;31;34302;-62
2023/05/08 04:03:52;;;;;;;5.05;3.40;;;;;;;14.85;47.81;100088.03;4480143;31;34945;-62
2023/05/08 04:06:29;;;;;;;3.92;2.35;;;;;;;14.81;47.67;100084.75;4481069;31;34045;-61
2023/05/08 04:09:17;;;;;;;3.55;2.20;;;;;;;14.81;47.30;100082.06;4486288;31;34657;-60
2023/05/08 04:12:03;;;;;;;5.12;2.50;;;;;;;14.78;47.47;100089.56;4487144;31;34854;-61
2023/05/08 04:14:37;;;;;;;3.15;2.47;;;;;;;14.74;47.81;100090.84;4482742;31;34593;-61
2023/05/08 04:17:06;;;;;;;6.28;3.83;;;;;;;14.81;47.97;100095.53;4480242;31;33329;-61
2023/05/08 04:19:38;;;;;;;5.95;3.15;;;;;;;14.79;48.43;100094.81;4493537;31;34345;-60
2023/05/08 04:22:07;;;;;;;6.40;3.05;;;;;;;14.88;48.37;100096.72;4493960;31;32649;-61
2023/05/08 04:24:39;;;;;;;6.70;3.25;;;;;;;14.86;48.71;100104.09;4484071;31;34477;-61
2023/05/08 04:27:09;;;;;;;4.45;3.37;;;;;;;14.76;49.09;100107.69;4492388;31;33428;-60
2023/05/08 04:29:36;;;;;;;5.53;3.67;;;;;;;14.70;49.54;100103.69;4493642;31;33771;-61
2023/05/08 04:32:04;;;;;;;6.68;3.03;;;;;;;14.88;49.18;100112.88;4493985;31;34954;-60
2023/05/08 04:34:32;;;;;;;14.70;3.22;;;;;;;14.98;49.46;100117.47;4492083;31;35214;-59
2023/05/08 04:37:00;;;;;;;5.37;3.28;;;;;;;15.02;49.74;100124.28;4494071;31;33604;-60
2023/05/08 04:39:28;;;;;;;8.27;3.95;;;;;;;15.21;49.12;100113.59;4490559;31;34702;-60
2023/05/08 04:42:01;;;;;;;7.75;4.37;;;;;;;15.24;49.08;100123.28;4487880;31;33942;-62
2023/05/08 04:44:31;;;;;;;4.90;3.13;;;;;;;15.33;49.15;100127.84;4486086;31;34275;-60
2023/05/08 04:46:58;;;;;;;9.27;4.28;;;;;;;15.25;49.69;100130.34;4485908;31;34100;-61
2023/05/08 04:49:25;;;;;;;6.03;3.70;;;;;;;15.46;49.04;100135.72;4493301;31;33946;-59
2023/05/08 04:51:53;;;;;;;5.45;4.37;;;;;;;15.47;49.13;100143.66;4484082;31;34066;-60
2023/05/08 04:54:21;;;;;;;4.22;2.58;;;;;;;15.52;48.87;100145.97;4486081;31;34908;-62
2023/05/08 04:56:48;;;;;;;9.15;3.97;;;;;;;15.56;49.01;100145.53;4489875;31;33836;-62
2023/05/08 04:59:16;;;;;;;3.72;2.33;;;;;;;15.53;49.30;100139.56;4491144;31;33930;-62
2023/05/08 05:01:45;;;;;;;8.55;3.12;;;;;;;15.55;49.36;100143.84;4485344;31;35463;-61
2023/05/08 05:04:13;;;;;;;6.10;4.65;;;;;;;15.59;48.66;100150.66;4492115;31;33870;-61
2023/05/08 05:06:41;;;;;;;3.75;1.85;;;;;;;15.51;49.15;100142.41;4492401;31;32825;-62
2023/05/08 05:09:09;;;;;;;5.80;3.62;;;;;;;15.66;48.94;100152.81;4492433;31;33575;-61
2023/05/08 05:11:36;;;;;;;5.30;4.32;;;;;;;15.55;49.47;100151.09;4485486;31;35441;-61
2023/05/08 05:14:05;;;;;;;12.07;4.55;;;;;;;15.68;49.08;100158.97;4494253;31;34677;-62
2023/05/08 05:16:32;;;;;;;7.70;4.30;;;;;;;15.56;49.64;100150.09;4483371;31;33311;-61
2023/05/08 05:19:00;;;;;;;7.95;5.03;;;;;;;15.65;49.39;100148.41;4492107;31;35131;-60
2023/05/08 05:21:28;;;;;;;4.97;3.50;;;;;;;15.66;49.39;100150.13;4483137;31;32721;-60
2023/05/08 05:23:57;;;;;;;5.30;3.28;;;;;;;15.78;49.02;100149.06;4491117;31;34094;-60
2023/05/08 05:26:24;;;;;;;9.38;5.10;;;;;;;15.83;48.99;100153.06;4485258;31;33505;-61
2023/05/08 05:28:52;;;;;;;11.60;4.95;;;;;;;15.86;49.44;100151.94;4494800;31;33847;-60
2023/05/08 05:31:20;;;;;;;5.65;4.10;;;;;;;15.76;50.16;100157.28;4486706;31;33726;-60
2023/05/08 05:33:48;;;;;;;6.95;4.72;;;;;;;15.90;50.03;100157.91;4485290;31;34231;-61
2023/05/08 05:36:15;;;;;;;7.20;4.15;;;;;;;15.87;49.85;100164.41;4494593;31;33960;-61
2023/05/08 05:38:43;;;;;;;10.95;5.87;;;;;;;16.18;49.39;100151.69;4481240;31;35051;-61
2023/05/08 05:41:11;;;;;;;7.03;4.28;;;;;;;16.34;48.85;100164.62;4494991;31;32410;-61
2023/05/08 05:43:39;;;;;;;6.10;4.37;;;;;;;16.33;48.21;100160.22;4488350;31;33989;-61
2023/05/08 05:46:08;;;;;;;7.32;4.40;;;;;;;16.39;48.29;100167.75;4487469;31;33000;-61
2023/05/08 05:48:35;;;;;;;5.93;3.92;;;;;;;16.36;48.38;100173.44;4497578;31;33526;-60
2023/05/08 05:51:03;;;;;;;10.70;4.97;;;;;;;16.38;48.70;100174.16;4487381;31;32844;-60
2023/05/08 05:53:31;;;;;;;5.22;3.50;;;;;;;16.57;48.17;100167.91;4495519;31;34574;-61
2023/05/08 05:55:59;;;;;;;7.78;4.20;;;;;;;16.50;48.92;100174.84;4493124;31;32512;-61
2023/05/08 05:58:27;;;;;;;10.18;4.43;;;;;;;16.71;48.36;100172.84;4490470;31;33649;-60
2023/05/08 06:00:57;;;;;;;5.22;3.17;;;;;;;16.81;48.00;100166.63;4494434;31;35837;-61
2023/05/08 06:03:25;;;;;;;7.75;2.90;;;;;;;16.82;47.86;100173.72;4481922;31;33793;-60
2023/05/08 06:05:52;;;;;;;3.05;1.95;;;;;;;16.81;46.58;100174.72;4495680;31;33416;-60
2023/05/08 06:08:22;;;;;;;4.03;1.50;;;;;;;16.57;43.89;100177.88;4487912;31;35430;-61
2023/05/08 06:10:49;;;;;;;2.22;1.40;;;;;;;16.73;44.71;100173.56;4487077;31;33672;-61
2023/05/08 06:13:17;;;;;;;3.12;1.50;;;;;;;16.57;44.00;100167.06;4488034;31;34141;-61
2023/05/08 06:15:45;;;;;;;3.25;1.70;;;;;;;16.79;43.48;100165.91;4494773;31;33637;-61
2023/05/08 06:18:13;;;;;;;2.33;1.60;;;;;;;16.93;42.01;100171.72;4495098;31;33672;-60
2023/05/08 06:20:40;;;;;;;2.60;1.67;;;;;;;16.61;43.55;100174.72;4484888;31;32908;-61
2023/05/08 06:23:08;;;;;;;2.15;1.30;;;;;;;16.81;42.74;100170.19;4483823;31;33983;-60
2023/05/08 06:25:35;;;;;;;2.60;1.50;;;;;;;17.08;42.38;100168.56;4488709;31;34522;-60
2023/05/08 06:28:05;;;;;;;3.12;1.33;;;;;;;16.58;44.57;100172.31;4496218;31;33766;-60
2023/05/08 06:30:33;;;;;;;2.67;1.73;;;;;;;16.94;43.12;100176.13;4495272;31;33983;-61
2023/05/08 06:33:01;;;;;;;2.08;1.37;;;;;;;16.82;43.02;100174.59;4490785;31;34641;-61
2023/05/08 06:35:28;;;;;;;2.37;1.37;;;;;;;16.76;44.25;100175.19;4497747;31;31623;-61
2023/05/08 06:37:56;;;;;;;2.05;1.65;;;;;;;17.03;42.68;100176.25;4493762;31;33965;-59
2023/05/08 06:40:23;;;;;;;3.42;1.85;;;;;;;17.26;41.24;100176.78;4495048;31;33201;-61
2023/05/08 06:42:51;;;;;;;1.83;1.10;;;;;;;17.24;41.71;100182.34;4493485;31;33918;-66
2023/05/08 06:45:18;;;;;;;2.08;1.30;;;;;;;17.15;40.42;100178.66;4493482;31;33250;-61
2023/05/08 06:47:46;;;;;;;1.20;0.93;;;;;;;17.55;39.13;100182.06;4486600;31;34992;-61
2023/05/08 06:50:13;;;;;;;2.47;1.05;;;;;;;17.25;40.90;100184.03;4495467;31;34050;-61
2023/05/08 06:52:41;;;;;;;0.85;0.77;;;;;;;17.08;41.32;100185.66;4494418;31;33701;-63
2023/05/08 06:55:09;;;;;;;2.30;1.12;;;;;;;17.44;39.83;100183.13;4491717;31;34590;-62
2023/05/08 06:57:36;;;;;;;1.50;1.20;;;;;;;17.61;39.91;100189.59;4498484;31;33548;-61
2023/05/08 07:00:05;;;;;;;1.55;1.05;;;;;;;17.45;39.44;100190.22;4490802;31;35009;-63
2023/05/08 07:02:32;;;;;;;2.12;1.00;;;;;;;17.33;40.06;100191.41;4490056;31;33813;-62
2023/05/08 07:05:00;;;;;;;1.15;0.85;;;;;;;17.27;39.16;100184.75;4490971;31;33424;-61
2023/05/08 07:07:28;;;;;;;1.65;0.93;;;;;;;17.54;38.97;100196.63;4498179;31;34949;-63
2023/05/08 07:09:55;;;;;;;2.53;1.08;;;;;;;17.57;38.15;100194.47;4497165;31;34142;-62
2023/05/08 07:12:23;;;;;;;1.23;1.12;;;;;;;17.83;37.54;100194.66;4496723;31;32744;-64
2023/05/08 07:14:50;;;;;;;2.45;1.52;;;;;;;17.57;37.29;100199.87;4492254;31;34377;-63
2023/05/08 07:17:18;;;;;;;1.35;0.77;;;;;;;17.49;38.10;100196.19;4485524;31;33777;-62
2023/05/08 07:19:49;;;;;;;1.60;0.65;;;;;;;17.79;37.29;100197.81;4494354;31;33764;-61
2023/05/08 07:22:17;;;;;;;2.20;1.00;;;;;;;17.99;37.53;100201.28;4497147;31;34160;-61
2023/05/08 07:24:45;;;;;;;2.92;0.98;;;;;;;18.03;38.27;100197.25;4489109;31;33142;-64
2023/05/08 07:27:13;;;;;;;0.68;0.50;;;;;;;17.72;39.03;100202.97;4486603;31;34558;-61
2023/05/08 07:29:41;;;;;;;1.17;0.75;;;;;;;17.61;38.79;100192.31;4490966;31;32978;-64
2023/05/08 07:32:09;;;;;;;1.75;1.15;;;;;;;17.42;38.58;100191.38;4487874;31;33810;-61
2023/05/08 07:34:37;;;;;;;1.77;1.25;;;;;;;16.91;39.00;100197.19;4488000;31;34556;-64
2023/05/08 07:37:04;;;;;;;6.93;1.17;;;;;;;17.39;38.55;100191.66;4488196;31;32490;-62
2023/05/08 07:39:32;;;;;;;1.23;0.73;;;;;;;17.98;38.46;100199.56;4490170;31;33890;-61
2023/05/08 07:42:00;;;;;;;1.85;0.75;;;;;;;18.06;38.17;100199.66;4493147;31;32535;-61
2023/05/08 07:44:30;;;;;;;1.20;0.93;;;;;;;17.69;37.95;100203.25;4487722;31;33260;-64
2023/05/08 07:47:10;;;;;;;1.12;0.85;;;;;;;18.15;36.85;100209.59;4484742;32;34724;-61
2023/05/08 07:49:38;;;;;;;3.78;1.33;;;;;;;18.51;36.94;100196.06;4485636;31;32712;-61
2023/05/08 07:52:05;;;;;;;0.68;0.68;;;;;;;18.67;36.57;100192.66;4492864;31;35206;-61
2023/05/08 07:54:33;;;;;;;2.58;1.00;;;;;;;18.70;36.47;100195.06;4484388;31;34465;-62
2023/05/08 07:57:00;;;;;;;1.35;1.00;;;;;;;18.79;35.72;100195.00;4494250;31;34779;-61
2023/05/08 07:59:28;;;;;;;1.58;1.00;;;;;;;18.46;36.34;100199.25;4498411;31;35269;-63
2023/05/08 08:01:55;;;;;;;5.15;1.05;;;;;;;19.00;36.33;100194.62;4491814;31;32733;-61
2023/05/08 08:04:23;;;;;;;1.05;0.75;;;;;;;17.84;39.22;100192.78;4491236;31;33379;-62
2023/05/08 08:06:51;;;;;;;1.20;0.90;;;;;;;18.13;37.74;100201.59;4483538;31;34908;-63
2023/05/08 08:09:18;;;;;;;4.07;1.73;;;;;;;18.36;38.04;100193.91;4483863;31;34975;-61
2023/05/08 08:11:46;;;;;;;1.98;1.10;;;;;;;18.97;36.16;100191.41;4499026;31;34030;-62
2023/05/08 08:14:13;;;;;;;1.55;0.98;;;;;;;19.18;37.03;100191.91;4497031;31;34977;-62
2023/05/08 08:16:44;;;;;;;0.85;0.75;;;;;;;18.79;35.86;100189.56;4494524;31;33807;-62
2023/05/08 08:19:11;;;;;;;3.97;1.17;;;;;;;19.09;35.56;100193.69;4498127;31;35049;-60
2023/05/08 08:21:42;;;;;;;2.28;1.02;;;;;;;18.79;35.71;100189.56;4493379;31;33536;-63
2023/05/08 08:24:11;;;;;;;0.60;0.60;;;;;;;18.18;36.55;100195.75;4496859;31;33290;-63
2023/05/08 08:26:38;;;;;;;2.53;1.37;;;;;;;18.11;37.60;100194.66;4498374;31;33883;-62
2023/05/08 08:29:06;;;;;;;0.88;0.60;;;;;;;17.72;37.36;100191.25;4495130;31;33973;-61
2023/05/08 08:31:33;;;;;;;1.48;0.98;;;;;;;18.02;36.41;100190.13;4496033;31;33629;-63
2023/05/08 08:34:01;;;;;;;0.98;0.88;;;;;;;17.77;37.47;100191.69;4499138;31;31719;-63
2023/05/08 08:36:29;;;;;;;3.72;0.55;;;;;;;18.30;36.63;100193.66;4489433;31;34605;-62
2023/05/08 08:38:57;;;;;;;2.28;1.25;;;;;;;18.19;36.39;100186.59;4487632;31;34063;-62
2023/05/08 08:41:26;;;;;;;2.45;1.45;;;;;;;18.12;36.89;100193.63;4481041;31;35073;-61
2023/05/08 08:43:54;;;;;;;2.10;0.88;;;;;;;17.73;37.05;100198.38;4496766;31;36725;-64
2023/05/08 08:46:26;;;;;;;1.40;0.93;;;;;;;17.92;37.00;100191.03;4483288;31;34782;-62
2023/05/08 08:48:55;;;;;;;1.55;0.70;;;;;;;17.98;37.83;100192.31;4491424;31;35279;-62
2023/05/08 08:51:27;;;;;;;1.15;0.68;;;;;;;18.01;36.83;100185.69;4496582;31;33762;-62
2023/05/08 08:54:02;;;;;;;0.68;0.60;;;;;;;18.35;37.28;100175.91;4489308;31;34452;-62
2023/05/08 08:56:30;;;;;;;1.17;0.82;;;;;;;18.52;37.08;100186.91;4489092;31;34613;-61
2023/05/08 08:58:59;;;;;;;1.85;1.00;;;;;;;18.57;34.60;100187.31;4486142;31;34074;-60
2023/05/08 09:01:30;;;;;;;1.77;0.75;;;;;;;18.67;35.51;100189.94;4495779;31;34039;-63
2023/05/08 09:03:58;;;;;;;1.90;1.00;;;;;;;18.86;36.14;100187.09;4493606;31;36021;-61
2023/05/08 09:06:27;;;;;;;1.52;0.75;;;;;;;18.90;36.33;100191.19;4485498;31;34650;-62
2023/05/08 09:08:56;;;;;;;1.90;0.95;;;;;;;19.33;34.21;100191.31;4494670;31;33866;-63
2023/05/08 09:11:24;;;;;;;0.95;0.73;;;;;;;19.59;33.37;100197.56;4482774;31;34481;-63
2023/05/08 09:13:54;;;;;;;1.62;0.77;;;;;;;19.28;34.04;100187.22;4487497;31;34042;-62
2023/05/08 09:16:22;;;;;;;1.17;0.68;;;;;;;19.14;34.54;100181.53;4491093;31;33717;-62
2023/05/08 09:18:50;;;;;;;1.17;0.62;;;;;;;19.68;33.08;100191.22;4490465;31;33898;-64
2023/05/08 09:21:18;;;;;;;1.17;0.73;;;;;;;19.12;35.41;100192.53;4492981;31;33951;-63
2023/05/08 09:23:57;;;;;;;1.05;0.82;;;;;;;19.35;34.96;100192.00;4488895;31;34216;-63
2023/05/08 09:26:34;;;;;;;0.82;0.75;;;;;;;19.67;32.70;100185.91;4492649;31;34031;-63
2023/05/08 09:29:14;;;;;;;0.90;0.62;;;;;;;20.20;32.56;100184.75;4495314;31;34027;-64
2023/05/08 09:31:44;;;;;;;1.20;0.70;;;;;;;19.57;33.38;100191.44;4486103;31;33989;-61
2023/05/08 09:34:28;;;;;;;0.90;0.60;;;;;;;20.31;32.27;100186.31;4493563;31;33321;-62
2023/05/08 09:37:08;;;;;;;1.27;0.73;;;;;;;20.04;32.07;100174.69;4490735;31;33759;-63
2023/05/08 09:39:40;;;;;;;1.58;1.48;;;;;;;20.53;30.81;100174.81;4490369;31;33650;-63
2023/05/08 09:42:08;;;;;;;2.62;0.85;;;;;;;20.03;30.99;100175.69;4499899;31;35056;-63
2023/05/08 09:44:53;;;;;;;1.45;0.88;;;;;;;20.30;30.75;100179.19;4492014;31;33201;-63
2023/05/08 09:47:23;;;;;;;1.27;0.73;;;;;;;20.43;31.34;100176.81;4494553;31;33730;-62
2023/05/08 09:50:08;;;;;;;0.95;0.77;;;;;;;19.72;30.14;100170.84;4494248;31;34046;-62
2023/05/08 09:52:37;;;;;;;0.73;0.50;;;;;;;20.76;30.89;100168.72;4495241;31;33816;-60
2023/05/08 09:55:09;;;;;;;0.57;0.55;;;;;;;20.80;29.88;100173.66;4494741;31;33221;-61
2023/05/08 09:57:39;;;;;;;0.30;0.30;;;;;;;21.17;27.96;100164.91;4496564;31;34854;-61
2023/05/08 10:00:11;;;;;;;0.90;0.57;;;;;;;20.68;29.06;100167.69;4491057;31;34945;-61
2023/05/08 10:02:41;;;;;;;1.23;0.65;;;;;;;20.69;30.38;100166.66;4488934;31;33781;-61
2023/05/08 10:05:26;;;;;;;1.80;0.85;;;;;;;21.14;30.40;100161.69;4491586;31;32981;-62
2023/05/08 10:07:54;;;;;;;1.45;0.60;;;;;;;21.08;30.50;100165.94;4487952;31;33579;-62
2023/05/08 10:10:27;;;;;;;0.82;0.40;;;;;;;21.39;29.79;100162.53;4487860;31;35137;-62
2023/05/08 10:12:56;;;;;;;0.32;0.32;;;;;;;21.69;29.22;100157.31;4493119;31;32710;-61
2023/05/08 10:15:28;;;;;;;1.90;0.57;;;;;;;22.14;28.57;100161.16;4494535;31;34362;-61
2023/05/08 10:18:06;;;;;;;0.55;0.55;;;;;;;21.80;27.58;100156.94;4499606;31;33435;-61
2023/05/08 10:20:37;;;;;;;0.98;0.68;;;;;;;22.35;27.89;100147.78;4497406;31;35505;-62
2023/05/08 10:23:12;;;;;;;1.00;0.65;;;;;;;22.13;28.03;100151.31;4497108;31;33882;-62
2023/05/08 10:25:55;;;;;;;0.75;0.52;;;;;;;22.14;27.51;100145.66;4493978;31;33256;-62
2023/05/08 10:28:38;;;;;;;0.65;0.50;;;;;;;22.76;26.71;100136.53;4487779;31;33682;-61
2023/05/08 10:31:06;;;;;;;3.60;0.60;;;;;;;22.52;27.57;100138.44;4488422;31;33850;-61
2023/05/08 10:33:39;;;;;;;0.80;0.57;;;;;;;22.49;27.52;100144.25;4495957;31;33508;-62
2023/05/08 10:36:08;;;;;;;1.80;0.43;;;;;;;22.26;27.03;100137.97;4497719;31;32275;-63
2023/05/08 10:38:36;;;;;;;4.28;0.62;;;;;;;22.42;27.53;100124.19;4493192;31;31977;-61
2023/05/08 10:41:04;;;;;;;2.17;0.95;;;;;;;22.44;27.71;100127.59;4486109;31;33908;-62
2023/05/08 10:43:32;;;;;;;0.80;0.52;;;;;;;23.00;25.61;100139.06;4500143;31;33904;-61
2023/05/08 10:46:07;;;;;;;1.08;0.32;;;;;;;22.12;26.79;100131.38;4494923;31;33363;-60
2023/05/08 10:48:41;;;;;;;1.35;0.45;;;;;;;22.14;25.86;100134.75;4484696;31;32675;-60
2023/05/08 10:51:34;;;;;;;0.80;0.30;;;;;;;23.00;24.74;100132.75;4496625;31;34266;-62
2023/05/08 10:54:08;;;;;;;0.60;0.22;;;;;;;22.65;24.86;100129.63;4489078;31;34194;-62
2023/05/08 10:56:37;;;;;;;0.62;0.40;;;;;;;22.53;25.26;100129.22;4484262;31;31530;-64
2023/05/08 10:59:04;;;;;;;0.82;0.45;;;;;;;22.18;25.46;100122.47;4482278;31;33763;-63
2023/05/08 11:01:32;;;;;;;1.00;0.50;;;;;;;22.64;25.90;100119.75;4487485;31;33131;-61
2023/05/08 11:04:00;;;;;;;1.30;0.60;;;;;;;22.30;25.38;100125.66;4494208;31;33109;-61
2023/05/08 11:06:47;;;;;;;0.90;0.57;;;;;;;22.41;26.16;100119.78;4491548;31;33543;-61
2023/05/08 11:09:20;;;;;;;3.55;0.90;;;;;;;22.84;25.73;100111.91;4491056;31;34122;-62
2023/05/08 11:11:53;;;;;;;0.50;0.40;;;;;;;23.10;25.16;100119.69;4493884;31;33894;-66
2023/05/08 11:14:21;;;;;;;1.05;0.40;;;;;;;22.49;25.68;100108.81;4489332;31;33936;-62
2023/05/08 11:16:52;;;;;;;0.75;0.47;;;;;;;22.62;26.64;100104.59;4486430;31;32984;-61
2023/05/08 11:19:21;;;;;;;0.37;0.37;;;;;;;22.98;25.60;100102.06;4494152;31;33414;-62
2023/05/08 11:22:13;;;;;;;1.12;0.60;;;;;;;22.63;25.61;100109.03;4485917;31;33920;-61
2023/05/08 11:24:57;;;;;;;0.45;0.30;;;;;;;23.42;23.87;100107.53;4491032;31;33519;-62
2023/05/08 11:27:34;;;;;;;0.32;0.32;;;;;;;22.51;25.32;100100.44;4489982;31;34288;-61
2023/05/08 11:30:31;;;;;;;0.40;0.30;;;;;;;22.49;24.90;100095.16;4492865;31;34482;-62
2023/05/08 11:33:05;;;;;;;0.75;0.40;;;;;;;22.02;25.77;100103.47;4490667;31;35282;-62
2023/05/08 11:35:45;;;;;;;0.40;0.30;;;;;;;22.51;24.79;100100.44;4487097;31;33904;-63
2023/05/08 11:38:21;;;;;;;0.47;0.32;;;;;;;21.96;25.67;100091.44;4490049;31;33292;-61
2023/05/08 11:40:59;;;;;;;1.37;0.55;;;;;;;22.22;25.27;100098.47;4491159;31;33910;-62
2023/05/08 11:43:32;;;;;;;1.55;0.52;;;;;;;22.10;25.30;100104.28;4486468;31;34089;-62